Sunday, May 27, 2018, 5:50 PM GMT
Back to Local

CWEP, East Point, P. E. I

Location: , , Canada Lat: 46.45
Local Time: 5:50 PM GMT (17:50 GMT) Lon: -61.967
Time Zone: GMT Elev: 36 ft

Show me the last for .
Show Coded

Time T Td Feel RH Dir Speed Gust Alt SLP Vis Weather Sky Remarks
2018-05-27 17:00 48 38 43 68 330° 9 - - 30.34 0 None
2018-05-27 16:00 46 38 42 73 330° 8 - - 30.34 0 None
2018-05-27 15:00 45 37 41 74 330° 7 - - 30.34 0 None
2018-05-27 14:00 45 37 41 73 340° 7 - - 30.33 0 None
2018-05-27 13:00 44 37 40 74 350° 7 - - 30.32 0 None
2018-05-27 12:00 44 37 40 76 20° 7 - - 30.31 0 None
2018-05-27 11:00 43 38 38 81 360° 8 - - 30.29 0 None
2018-05-27 10:00 43 39 37 85 20° 12 - - 30.27 0 None
2018-05-27 09:00 44 40 36 85 360° 16 - - 30.23 0 Peak wind: 19 mph (17 kts) from 350° at 34 min
2018-05-27 08:00 42 39 35 87 350° 14 - - 30.19 0 Peak wind: 20 mph (18 kts) from 350° at 19 min
2018-05-27 07:00 42 39 34 88 350° 17 - - 30.17 0 Peak wind: 20 mph (18 kts) from 350° at 43 min
2018-05-27 06:00 42 39 34 88 340° 15 - - 30.16 0 None
2018-05-27 05:00 42 38 35 86 350° 15 - - 30.14 0 Peak wind: 19 mph (17 kts) from 0° at 03 min
2018-05-27 04:00 42 38 34 86 360° 18 - - 30.11 0 Peak wind: 23 mph (20 kts) from 350° at 07 min
2018-05-27 03:00 43 39 34 85 350° 21 - - 30.08 0 Peak wind: 25 mph (22 kts) from 350° at 36 min
2018-05-27 02:00 43 39 34 85 350° 20 - - 30.06 0 Peak wind: 26 mph (23 kts) from 340° at 01 min
2018-05-27 01:00 42 38 32 84 340° 22 28 - 30.02 0 Peak wind: 27 mph (24 kts) from 340° at 06 min
2018-05-27 00:00 42 38 33 84 340° 18 - - 29.99 0 Peak wind: 25 mph (22 kts) from 340° at 28 min
2018-05-26 23:00 42 37 33 82 350° 20 - - 29.96 0 Peak wind: 24 mph (21 kts) from 340° at 59 min
2018-05-26 22:00 43 38 36 81 340° 13 - - 29.91 0 Peak wind: 21 mph (19 kts) from 0° at 01 min
2018-05-26 21:00 43 38 35 81 350° 18 - - 29.87 0 Peak wind: 24 mph (21 kts) from 350° at 52 min
2018-05-26 20:00 44 40 36 84 350° 17 - - 29.83 0 Peak wind: 23 mph (20 kts) from 350° at 49 min
2018-05-26 19:00 44 39 36 84 350° 18 - - 29.80 0 Peak wind: 24 mph (21 kts) from 350° at 12 min
2018-05-26 18:00 43 39 35 85 350° 18 - - 29.75 0 Peak wind: 20 mph (18 kts) from 350° at 56 min

Support USWX by starting your Amazon purchase here.